sensor_id;sensor_type;location;lat;lon;timestamp;temperature;humidity
9103;DHT22;4587;51.434;6.788;2023-08-01T00:02:16;17.60;99.90
9103;DHT22;4587;51.434;6.788;2023-08-01T00:04:42;17.50;99.90
9103;DHT22;4587;51.434;6.788;2023-08-01T00:07:07;17.50;99.90
9103;DHT22;4587;51.434;6.788;2023-08-01T00:09:33;17.50;99.90
9103;DHT22;4587;51.434;6.788;2023-08-01T00:11:58;17.40;99.90
9103;DHT22;4587;51.434;6.788;2023-08-01T00:14:24;17.40;99.90
9103;DHT22;4587;51.434;6.788;2023-08-01T00:16:50;17.30;99.90
9103;DHT22;4587;51.434;6.788;2023-08-01T00:19:16;17.20;99.90
9103;DHT22;4587;51.434;6.788;2023-08-01T00:21:42;17.20;99.90
9103;DHT22;4587;51.434;6.788;2023-08-01T00:24:07;17.20;99.90
9103;DHT22;4587;51.434;6.788;2023-08-01T00:26:34;17.20;99.90
9103;DHT22;4587;51.434;6.788;2023-08-01T00:29:00;17.10;99.90
9103;DHT22;4587;51.434;6.788;2023-08-01T00:31:26;17.10;99.90
9103;DHT22;4587;51.434;6.788;2023-08-01T00:33:51;17.10;99.90
9103;DHT22;4587;51.434;6.788;2023-08-01T00:36:17;17.10;99.90
9103;DHT22;4587;51.434;6.788;2023-08-01T00:38:42;17.10;99.90
9103;DHT22;4587;51.434;6.788;2023-08-01T00:41:09;17.20;99.90
9103;DHT22;4587;51.434;6.788;2023-08-01T00:43:35;17.20;99.90
9103;DHT22;4587;51.434;6.788;2023-08-01T00:46:03;17.10;99.90
9103;DHT22;4587;51.434;6.788;2023-08-01T00:48:30;17.20;99.90
9103;DHT22;4587;51.434;6.788;2023-08-01T00:51:00;17.20;99.90
9103;DHT22;4587;51.434;6.788;2023-08-01T00:53:26;17.20;99.90
9103;DHT22;4587;51.434;6.788;2023-08-01T00:55:52;17.20;99.90
9103;DHT22;4587;51.434;6.788;2023-08-01T00:58:19;17.10;99.90
9103;DHT22;4587;51.434;6.788;2023-08-01T01:00:46;17.10;99.90
9103;DHT22;4587;51.434;6.788;2023-08-01T01:03:12;17.10;99.90
9103;DHT22;4587;51.434;6.788;2023-08-01T01:06:01;17.10;99.90
9103;DHT22;4587;51.434;6.788;2023-08-01T01:08:27;17.10;99.90
9103;DHT22;4587;51.434;6.788;2023-08-01T01:10:53;17.20;99.90
9103;DHT22;4587;51.434;6.788;2023-08-01T01:13:18;17.20;99.90
9103;DHT22;4587;51.434;6.788;2023-08-01T01:15:44;17.20;99.90
9103;DHT22;4587;51.434;6.788;2023-08-01T01:18:10;17.20;99.90
9103;DHT22;4587;51.434;6.788;2023-08-01T01:20:36;17.20;99.90
9103;DHT22;4587;51.434;6.788;2023-08-01T01:23:04;17.10;99.90
9103;DHT22;4587;51.434;6.788;2023-08-01T01:25:31;17.10;99.90
9103;DHT22;4587;51.434;6.788;2023-08-01T01:27:58;17.20;99.90
9103;DHT22;4587;51.434;6.788;2023-08-01T01:30:24;17.20;99.90
9103;DHT22;4587;51.434;6.788;2023-08-01T01:32:50;17.20;99.90
9103;DHT22;4587;51.434;6.788;2023-08-01T01:35:16;17.20;99.90
9103;DHT22;4587;51.434;6.788;2023-08-01T01:37:41;17.20;99.90
9103;DHT22;4587;51.434;6.788;2023-08-01T01:40:07;17.20;99.90
9103;DHT22;4587;51.434;6.788;2023-08-01T01:42:34;17.20;99.90
9103;DHT22;4587;51.434;6.788;2023-08-01T01:44:59;17.20;99.90
9103;DHT22;4587;51.434;6.788;2023-08-01T01:47:25;17.10;99.90
9103;DHT22;4587;51.434;6.788;2023-08-01T01:49:50;17.00;99.90
9103;DHT22;4587;51.434;6.788;2023-08-01T01:52:16;17.00;99.90
9103;DHT22;4587;51.434;6.788;2023-08-01T01:54:42;16.90;99.90
9103;DHT22;4587;51.434;6.788;2023-08-01T01:57:07;16.80;99.90
9103;DHT22;4587;51.434;6.788;2023-08-01T01:59:33;16.80;99.90
9103;DHT22;4587;51.434;6.788;2023-08-01T02:01:58;16.80;99.90
9103;DHT22;4587;51.434;6.788;2023-08-01T02:04:25;16.80;99.90
9103;DHT22;4587;51.434;6.788;2023-08-01T02:06:50;16.80;99.90
9103;DHT22;4587;51.434;6.788;2023-08-01T02:09:18;16.80;99.90
9103;DHT22;4587;51.434;6.788;2023-08-01T02:11:44;16.70;99.90
9103;DHT22;4587;51.434;6.788;2023-08-01T02:14:10;16.70;99.90
9103;DHT22;4587;51.434;6.788;2023-08-01T02:16:35;16.70;99.90
9103;DHT22;4587;51.434;6.788;2023-08-01T02:19:01;16.70;99.90
9103;DHT22;4587;51.434;6.788;2023-08-01T02:21:26;16.70;99.90
9103;DHT22;4587;51.434;6.788;2023-08-01T02:23:52;16.60;99.90
9103;DHT22;4587;51.434;6.788;2023-08-01T02:26:17;16.60;99.90
9103;DHT22;4587;51.434;6.788;2023-08-01T02:28:43;16.60;99.90
9103;DHT22;4587;51.434;6.788;2023-08-01T02:31:09;16.60;99.90
9103;DHT22;4587;51.434;6.788;2023-08-01T02:33:34;16.60;99.90
9103;DHT22;4587;51.434;6.788;2023-08-01T02:36:00;16.70;99.90
9103;DHT22;4587;51.434;6.788;2023-08-01T02:38:25;16.70;99.90
9103;DHT22;4587;51.434;6.788;2023-08-01T02:40:51;16.70;99.90
9103;DHT22;4587;51.434;6.788;2023-08-01T02:43:16;16.70;99.90
9103;DHT22;4587;51.434;6.788;2023-08-01T02:45:42;16.70;99.90
9103;DHT22;4587;51.434;6.788;2023-08-01T02:48:08;16.70;99.90
9103;DHT22;4587;51.434;6.788;2023-08-01T02:50:33;16.70;99.90
9103;DHT22;4587;51.434;6.788;2023-08-01T02:52:59;16.80;99.90
9103;DHT22;4587;51.434;6.788;2023-08-01T02:55:24;16.80;99.90
9103;DHT22;4587;51.434;6.788;2023-08-01T02:57:50;16.80;99.90
9103;DHT22;4587;51.434;6.788;2023-08-01T03:00:16;16.70;99.90
9103;DHT22;4587;51.434;6.788;2023-08-01T03:02:43;16.70;99.90
9103;DHT22;4587;51.434;6.788;2023-08-01T03:05:09;16.70;99.90
9103;DHT22;4587;51.434;6.788;2023-08-01T03:07:35;16.80;99.90
9103;DHT22;4587;51.434;6.788;2023-08-01T03:10:01;16.70;99.90
9103;DHT22;4587;51.434;6.788;2023-08-01T03:12:27;16.70;99.90
9103;DHT22;4587;51.434;6.788;2023-08-01T03:14:52;16.70;99.90
9103;DHT22;4587;51.434;6.788;2023-08-01T03:17:18;16.70;99.90
9103;DHT22;4587;51.434;6.788;2023-08-01T03:19:43;16.70;99.90
9103;DHT22;4587;51.434;6.788;2023-08-01T03:22:12;16.60;99.90
9103;DHT22;4587;51.434;6.788;2023-08-01T03:24:37;16.60;99.90
9103;DHT22;4587;51.434;6.788;2023-08-01T03:27:03;16.50;99.90
9103;DHT22;4587;51.434;6.788;2023-08-01T03:29:29;16.50;99.90
9103;DHT22;4587;51.434;6.788;2023-08-01T03:31:54;16.50;99.90
9103;DHT22;4587;51.434;6.788;2023-08-01T03:34:20;16.50;99.90
9103;DHT22;4587;51.434;6.788;2023-08-01T03:36:46;16.50;99.90
9103;DHT22;4587;51.434;6.788;2023-08-01T03:39:11;16.50;99.90
9103;DHT22;4587;51.434;6.788;2023-08-01T03:41:37;16.40;99.90
9103;DHT22;4587;51.434;6.788;2023-08-01T03:44:03;16.40;99.90
9103;DHT22;4587;51.434;6.788;2023-08-01T03:46:29;16.40;99.90
9103;DHT22;4587;51.434;6.788;2023-08-01T03:48:55;16.40;99.90
9103;DHT22;4587;51.434;6.788;2023-08-01T03:51:20;16.40;99.90
9103;DHT22;4587;51.434;6.788;2023-08-01T03:53:46;16.40;99.90
9103;DHT22;4587;51.434;6.788;2023-08-01T03:56:13;16.40;99.90
9103;DHT22;4587;51.434;6.788;2023-08-01T03:58:38;16.40;99.90
9103;DHT22;4587;51.434;6.788;2023-08-01T04:01:04;16.50;99.90
9103;DHT22;4587;51.434;6.788;2023-08-01T04:03:32;16.40;99.90
9103;DHT22;4587;51.434;6.788;2023-08-01T04:05:57;16.40;99.90
9103;DHT22;4587;51.434;6.788;2023-08-01T04:08:23;16.40;99.90
9103;DHT22;4587;51.434;6.788;2023-08-01T04:10:49;16.30;99.90
9103;DHT22;4587;51.434;6.788;2023-08-01T04:13:15;16.30;99.90
9103;DHT22;4587;51.434;6.788;2023-08-01T04:15:41;16.40;99.90
9103;DHT22;4587;51.434;6.788;2023-08-01T04:18:06;16.40;99.90
9103;DHT22;4587;51.434;6.788;2023-08-01T04:20:32;16.40;99.90
9103;DHT22;4587;51.434;6.788;2023-08-01T04:22:57;16.50;99.90
9103;DHT22;4587;51.434;6.788;2023-08-01T04:25:24;16.40;99.90
9103;DHT22;4587;51.434;6.788;2023-08-01T04:27:50;16.50;99.90
9103;DHT22;4587;51.434;6.788;2023-08-01T04:30:16;16.40;99.90
9103;DHT22;4587;51.434;6.788;2023-08-01T04:32:41;16.40;99.90
9103;DHT22;4587;51.434;6.788;2023-08-01T04:35:07;16.50;99.90
9103;DHT22;4587;51.434;6.788;2023-08-01T04:37:33;16.50;99.90
9103;DHT22;4587;51.434;6.788;2023-08-01T04:39:58;16.40;99.90
9103;DHT22;4587;51.434;6.788;2023-08-01T04:42:24;16.40;99.90
9103;DHT22;4587;51.434;6.788;2023-08-01T04:44:49;16.40;99.90
9103;DHT22;4587;51.434;6.788;2023-08-01T04:47:15;16.40;99.90
9103;DHT22;4587;51.434;6.788;2023-08-01T04:49:40;16.40;99.90
9103;DHT22;4587;51.434;6.788;2023-08-01T04:52:06;16.40;99.90
9103;DHT22;4587;51.434;6.788;2023-08-01T04:54:32;16.40;99.90
9103;DHT22;4587;51.434;6.788;2023-08-01T04:56:58;16.50;99.90
9103;DHT22;4587;51.434;6.788;2023-08-01T04:59:23;16.50;99.90
9103;DHT22;4587;51.434;6.788;2023-08-01T05:01:49;16.50;99.90
9103;DHT22;4587;51.434;6.788;2023-08-01T05:04:14;16.40;99.90
9103;DHT22;4587;51.434;6.788;2023-08-01T05:06:40;16.40;99.90
9103;DHT22;4587;51.434;6.788;2023-08-01T05:09:05;16.40;99.90
9103;DHT22;4587;51.434;6.788;2023-08-01T05:11:32;16.40;99.90
9103;DHT22;4587;51.434;6.788;2023-08-01T05:13:58;16.50;99.90
9103;DHT22;4587;51.434;6.788;2023-08-01T05:16:23;16.50;99.90
9103;DHT22;4587;51.434;6.788;2023-08-01T05:18:49;16.60;99.90
9103;DHT22;4587;51.434;6.788;2023-08-01T05:21:14;16.60;99.90
9103;DHT22;4587;51.434;6.788;2023-08-01T05:23:40;16.60;99.90
9103;DHT22;4587;51.434;6.788;2023-08-01T05:26:05;16.60;99.90
9103;DHT22;4587;51.434;6.788;2023-08-01T05:28:31;16.60;99.90
9103;DHT22;4587;51.434;6.788;2023-08-01T05:30:56;16.60;99.90
9103;DHT22;4587;51.434;6.788;2023-08-01T05:33:22;16.70;99.90
9103;DHT22;4587;51.434;6.788;2023-08-01T05:35:50;16.70;99.90
9103;DHT22;4587;51.434;6.788;2023-08-01T05:38:16;16.70;99.90
9103;DHT22;4587;51.434;6.788;2023-08-01T05:40:41;16.70;99.90
9103;DHT22;4587;51.434;6.788;2023-08-01T05:43:07;16.70;99.90
9103;DHT22;4587;51.434;6.788;2023-08-01T05:45:34;16.70;99.90
9103;DHT22;4587;51.434;6.788;2023-08-01T05:48:01;16.70;99.90
9103;DHT22;4587;51.434;6.788;2023-08-01T05:50:26;16.70;99.90
9103;DHT22;4587;51.434;6.788;2023-08-01T05:52:52;16.80;99.90
9103;DHT22;4587;51.434;6.788;2023-08-01T05:55:17;16.70;99.90
9103;DHT22;4587;51.434;6.788;2023-08-01T05:57:43;16.70;99.90
9103;DHT22;4587;51.434;6.788;2023-08-01T06:00:09;16.80;99.90
9103;DHT22;4587;51.434;6.788;2023-08-01T06:02:35;16.80;99.90
9103;DHT22;4587;51.434;6.788;2023-08-01T06:05:00;16.80;99.90
9103;DHT22;4587;51.434;6.788;2023-08-01T06:07:26;16.90;99.90
9103;DHT22;4587;51.434;6.788;2023-08-01T06:09:52;17.00;99.90
9103;DHT22;4587;51.434;6.788;2023-08-01T06:12:18;17.00;99.90
9103;DHT22;4587;51.434;6.788;2023-08-01T06:14:44;17.10;99.90
9103;DHT22;4587;51.434;6.788;2023-08-01T06:17:10;17.20;99.90
9103;DHT22;4587;51.434;6.788;2023-08-01T06:19:35;17.20;99.90
9103;DHT22;4587;51.434;6.788;2023-08-01T06:22:01;17.20;99.90
9103;DHT22;4587;51.434;6.788;2023-08-01T06:24:26;17.20;99.90
9103;DHT22;4587;51.434;6.788;2023-08-01T06:26:52;17.20;99.90
9103;DHT22;4587;51.434;6.788;2023-08-01T06:29:17;17.30;99.90
9103;DHT22;4587;51.434;6.788;2023-08-01T06:31:43;17.30;99.90
9103;DHT22;4587;51.434;6.788;2023-08-01T06:34:08;17.30;99.90
9103;DHT22;4587;51.434;6.788;2023-08-01T06:36:34;17.30;99.90
9103;DHT22;4587;51.434;6.788;2023-08-01T06:39:00;17.30;99.90
9103;DHT22;4587;51.434;6.788;2023-08-01T06:41:26;17.30;99.90
9103;DHT22;4587;51.434;6.788;2023-08-01T06:43:51;17.30;99.90
9103;DHT22;4587;51.434;6.788;2023-08-01T06:46:17;17.30;99.90
9103;DHT22;4587;51.434;6.788;2023-08-01T06:48:43;17.40;99.90
9103;DHT22;4587;51.434;6.788;2023-08-01T06:51:08;17.60;99.90
9103;DHT22;4587;51.434;6.788;2023-08-01T06:53:34;17.70;99.90
9103;DHT22;4587;51.434;6.788;2023-08-01T06:55:59;17.90;99.90
9103;DHT22;4587;51.434;6.788;2023-08-01T06:58:25;18.10;99.90
9103;DHT22;4587;51.434;6.788;2023-08-01T07:00:50;18.70;99.90
9103;DHT22;4587;51.434;6.788;2023-08-01T07:03:16;18.90;99.90
9103;DHT22;4587;51.434;6.788;2023-08-01T07:05:42;19.20;99.90
9103;DHT22;4587;51.434;6.788;2023-08-01T07:08:07;19.40;99.90
9103;DHT22;4587;51.434;6.788;2023-08-01T07:10:36;19.50;99.90
9103;DHT22;4587;51.434;6.788;2023-08-01T07:13:02;19.70;99.90
9103;DHT22;4587;51.434;6.788;2023-08-01T07:15:30;19.60;99.90
9103;DHT22;4587;51.434;6.788;2023-08-01T07:17:55;19.60;99.90
9103;DHT22;4587;51.434;6.788;2023-08-01T07:20:21;19.60;99.90
9103;DHT22;4587;51.434;6.788;2023-08-01T07:22:47;19.40;99.90
9103;DHT22;4587;51.434;6.788;2023-08-01T07:25:12;19.20;99.90
9103;DHT22;4587;51.434;6.788;2023-08-01T07:27:38;19.00;99.90
9103;DHT22;4587;51.434;6.788;2023-08-01T07:30:04;18.90;99.90
9103;DHT22;4587;51.434;6.788;2023-08-01T07:32:30;18.80;99.90
9103;DHT22;4587;51.434;6.788;2023-08-01T07:34:56;18.70;99.90
9103;DHT22;4587;51.434;6.788;2023-08-01T07:37:22;18.50;99.90
9103;DHT22;4587;51.434;6.788;2023-08-01T07:39:49;18.40;99.90
9103;DHT22;4587;51.434;6.788;2023-08-01T07:42:14;18.30;99.90
9103;DHT22;4587;51.434;6.788;2023-08-01T07:44:40;18.30;99.90
9103;DHT22;4587;51.434;6.788;2023-08-01T07:47:05;18.20;99.90
9103;DHT22;4587;51.434;6.788;2023-08-01T07:49:31;18.20;99.90
9103;DHT22;4587;51.434;6.788;2023-08-01T07:51:56;18.20;99.90
9103;DHT22;4587;51.434;6.788;2023-08-01T07:54:24;18.30;99.90
9103;DHT22;4587;51.434;6.788;2023-08-01T07:56:49;19.50;99.90
9103;DHT22;4587;51.434;6.788;2023-08-01T07:59:15;20.40;99.90
9103;DHT22;4587;51.434;6.788;2023-08-01T08:01:41;20.70;99.90
9103;DHT22;4587;51.434;6.788;2023-08-01T08:04:07;20.90;99.90
9103;DHT22;4587;51.434;6.788;2023-08-01T08:06:32;20.80;99.90
9103;DHT22;4587;51.434;6.788;2023-08-01T08:08:58;21.00;99.90
9103;DHT22;4587;51.434;6.788;2023-08-01T08:11:23;22.00;99.90
9103;DHT22;4587;51.434;6.788;2023-08-01T08:13:49;22.40;99.90
9103;DHT22;4587;51.434;6.788;2023-08-01T08:16:15;22.90;99.90
9103;DHT22;4587;51.434;6.788;2023-08-01T08:18:41;22.90;99.90
9103;DHT22;4587;51.434;6.788;2023-08-01T08:21:06;22.50;99.90
9103;DHT22;4587;51.434;6.788;2023-08-01T08:23:32;21.90;99.90
9103;DHT22;4587;51.434;6.788;2023-08-01T08:25:57;21.40;99.90
9103;DHT22;4587;51.434;6.788;2023-08-01T08:28:30;20.90;99.90
9103;DHT22;4587;51.434;6.788;2023-08-01T08:30:56;20.40;99.90
9103;DHT22;4587;51.434;6.788;2023-08-01T08:33:22;20.30;99.90
9103;DHT22;4587;51.434;6.788;2023-08-01T08:35:48;20.30;99.90
9103;DHT22;4587;51.434;6.788;2023-08-01T08:38:14;20.50;99.90
9103;DHT22;4587;51.434;6.788;2023-08-01T08:40:42;20.50;99.90
9103;DHT22;4587;51.434;6.788;2023-08-01T08:43:09;20.40;99.90
9103;DHT22;4587;51.434;6.788;2023-08-01T08:45:35;20.30;99.90
9103;DHT22;4587;51.434;6.788;2023-08-01T08:48:02;20.20;99.90
9103;DHT22;4587;51.434;6.788;2023-08-01T08:50:33;20.10;99.90
9103;DHT22;4587;51.434;6.788;2023-08-01T08:53:00;20.30;99.90
9103;DHT22;4587;51.434;6.788;2023-08-01T08:55:28;20.20;99.90
9103;DHT22;4587;51.434;6.788;2023-08-01T08:57:54;20.20;99.90
9103;DHT22;4587;51.434;6.788;2023-08-01T09:00:20;20.40;99.90
9103;DHT22;4587;51.434;6.788;2023-08-01T09:02:47;20.70;99.90
9103;DHT22;4587;51.434;6.788;2023-08-01T09:05:12;20.80;99.90
9103;DHT22;4587;51.434;6.788;2023-08-01T09:07:41;21.00;99.90
9103;DHT22;4587;51.434;6.788;2023-08-01T09:10:07;21.10;99.90
9103;DHT22;4587;51.434;6.788;2023-08-01T09:12:34;21.40;99.90
9103;DHT22;4587;51.434;6.788;2023-08-01T09:15:00;21.50;99.90
9103;DHT22;4587;51.434;6.788;2023-08-01T09:17:26;21.40;99.90
9103;DHT22;4587;51.434;6.788;2023-08-01T09:20:06;21.50;99.90
9103;DHT22;4587;51.434;6.788;2023-08-01T09:22:43;21.50;99.90
9103;DHT22;4587;51.434;6.788;2023-08-01T09:25:10;21.70;99.90
9103;DHT22;4587;51.434;6.788;2023-08-01T09:27:35;21.70;99.90
9103;DHT22;4587;51.434;6.788;2023-08-01T09:30:12;21.80;99.90
9103;DHT22;4587;51.434;6.788;2023-08-01T09:32:39;21.80;99.90
9103;DHT22;4587;51.434;6.788;2023-08-01T09:35:05;22.10;99.90
9103;DHT22;4587;51.434;6.788;2023-08-01T09:37:41;22.20;99.90
9103;DHT22;4587;51.434;6.788;2023-08-01T09:40:08;22.10;99.90
9103;DHT22;4587;51.434;6.788;2023-08-01T09:42:40;22.10;99.90
9103;DHT22;4587;51.434;6.788;2023-08-01T09:45:11;22.30;99.90
9103;DHT22;4587;51.434;6.788;2023-08-01T09:47:37;22.30;99.90
9103;DHT22;4587;51.434;6.788;2023-08-01T09:50:03;22.10;99.90
9103;DHT22;4587;51.434;6.788;2023-08-01T09:52:29;21.90;99.90
9103;DHT22;4587;51.434;6.788;2023-08-01T09:54:55;22.00;99.90
9103;DHT22;4587;51.434;6.788;2023-08-01T09:57:22;22.20;99.90
9103;DHT22;4587;51.434;6.788;2023-08-01T09:59:49;22.50;99.90
9103;DHT22;4587;51.434;6.788;2023-08-01T10:02:15;22.80;99.90
9103;DHT22;4587;51.434;6.788;2023-08-01T10:04:46;23.00;99.90
9103;DHT22;4587;51.434;6.788;2023-08-01T10:07:13;23.20;99.90
9103;DHT22;4587;51.434;6.788;2023-08-01T10:09:40;23.10;99.90
9103;DHT22;4587;51.434;6.788;2023-08-01T10:12:07;23.10;99.90
9103;DHT22;4587;51.434;6.788;2023-08-01T10:14:35;22.90;99.90
9103;DHT22;4587;51.434;6.788;2023-08-01T10:17:02;22.80;99.90
9103;DHT22;4587;51.434;6.788;2023-08-01T10:19:32;22.70;99.90
9103;DHT22;4587;51.434;6.788;2023-08-01T10:21:58;22.50;99.90
9103;DHT22;4587;51.434;6.788;2023-08-01T10:24:25;22.40;99.90
9103;DHT22;4587;51.434;6.788;2023-08-01T10:26:51;22.40;99.90
9103;DHT22;4587;51.434;6.788;2023-08-01T10:29:17;22.50;99.90
9103;DHT22;4587;51.434;6.788;2023-08-01T10:31:52;22.40;99.90
9103;DHT22;4587;51.434;6.788;2023-08-01T10:34:18;22.30;99.90
9103;DHT22;4587;51.434;6.788;2023-08-01T10:36:56;22.30;99.90
9103;DHT22;4587;51.434;6.788;2023-08-01T10:39:23;22.10;99.90
9103;DHT22;4587;51.434;6.788;2023-08-01T10:42:01;21.80;99.90
9103;DHT22;4587;51.434;6.788;2023-08-01T10:44:27;21.60;99.90
9103;DHT22;4587;51.434;6.788;2023-08-01T10:46:55;21.40;99.90
9103;DHT22;4587;51.434;6.788;2023-08-01T10:52:02;21.00;99.90
9103;DHT22;4587;51.434;6.788;2023-08-01T10:54:28;20.80;99.90
9103;DHT22;4587;51.434;6.788;2023-08-01T10:56:56;20.70;99.90
9103;DHT22;4587;51.434;6.788;2023-08-01T10:59:25;20.70;99.90
9103;DHT22;4587;51.434;6.788;2023-08-01T11:01:52;20.70;99.90
9103;DHT22;4587;51.434;6.788;2023-08-01T11:04:20;20.30;99.90
9103;DHT22;4587;51.434;6.788;2023-08-01T11:06:51;20.00;99.90
9103;DHT22;4587;51.434;6.788;2023-08-01T11:09:20;19.90;99.90
9103;DHT22;4587;51.434;6.788;2023-08-01T11:11:50;19.80;99.90
9103;DHT22;4587;51.434;6.788;2023-08-01T11:14:16;19.50;99.90
9103;DHT22;4587;51.434;6.788;2023-08-01T11:16:44;19.30;99.90
9103;DHT22;4587;51.434;6.788;2023-08-01T11:19:20;19.10;99.90
9103;DHT22;4587;51.434;6.788;2023-08-01T11:21:46;19.20;99.90
9103;DHT22;4587;51.434;6.788;2023-08-01T11:24:11;19.40;99.90
9103;DHT22;4587;51.434;6.788;2023-08-01T11:26:45;19.50;99.90
9103;DHT22;4587;51.434;6.788;2023-08-01T11:29:11;19.60;99.90
9103;DHT22;4587;51.434;6.788;2023-08-01T11:31:38;19.60;99.90
9103;DHT22;4587;51.434;6.788;2023-08-01T11:34:04;19.70;99.90
9103;DHT22;4587;51.434;6.788;2023-08-01T11:36:30;19.70;99.90
9103;DHT22;4587;51.434;6.788;2023-08-01T11:38:57;19.80;99.90
9103;DHT22;4587;51.434;6.788;2023-08-01T11:41:24;19.90;99.90
9103;DHT22;4587;51.434;6.788;2023-08-01T11:43:51;20.10;99.90
9103;DHT22;4587;51.434;6.788;2023-08-01T11:46:16;20.20;99.90
9103;DHT22;4587;51.434;6.788;2023-08-01T11:48:45;20.20;99.90
9103;DHT22;4587;51.434;6.788;2023-08-01T11:51:17;20.20;99.90
9103;DHT22;4587;51.434;6.788;2023-08-01T11:53:43;20.20;99.90
9103;DHT22;4587;51.434;6.788;2023-08-01T11:56:18;20.20;99.90
9103;DHT22;4587;51.434;6.788;2023-08-01T11:58:44;20.40;99.90
9103;DHT22;4587;51.434;6.788;2023-08-01T12:01:11;20.30;99.90
9103;DHT22;4587;51.434;6.788;2023-08-01T12:03:51;20.20;99.90
9103;DHT22;4587;51.434;6.788;2023-08-01T12:06:18;20.10;99.90
9103;DHT22;4587;51.434;6.788;2023-08-01T12:08:47;19.90;99.90
9103;DHT22;4587;51.434;6.788;2023-08-01T12:11:24;19.80;99.90
9103;DHT22;4587;51.434;6.788;2023-08-01T12:14:12;19.80;99.90
9103;DHT22;4587;51.434;6.788;2023-08-01T12:16:42;19.80;99.90
9103;DHT22;4587;51.434;6.788;2023-08-01T12:19:10;19.80;99.90
9103;DHT22;4587;51.434;6.788;2023-08-01T12:21:36;19.90;99.90
9103;DHT22;4587;51.434;6.788;2023-08-01T12:24:02;19.90;99.90
9103;DHT22;4587;51.434;6.788;2023-08-01T12:26:28;20.00;99.90
9103;DHT22;4587;51.434;6.788;2023-08-01T12:28:54;19.90;99.90
9103;DHT22;4587;51.434;6.788;2023-08-01T12:31:21;19.90;99.90
9103;DHT22;4587;51.434;6.788;2023-08-01T12:33:47;19.90;99.90
9103;DHT22;4587;51.434;6.788;2023-08-01T12:36:14;19.90;99.90
9103;DHT22;4587;51.434;6.788;2023-08-01T12:38:39;19.90;99.90
9103;DHT22;4587;51.434;6.788;2023-08-01T12:41:06;19.90;99.90
9103;DHT22;4587;51.434;6.788;2023-08-01T12:43:32;20.00;99.90
9103;DHT22;4587;51.434;6.788;2023-08-01T12:45:57;20.10;99.90
9103;DHT22;4587;51.434;6.788;2023-08-01T12:48:24;20.40;99.90
9103;DHT22;4587;51.434;6.788;2023-08-01T12:50:50;20.80;99.90
9103;DHT22;4587;51.434;6.788;2023-08-01T12:53:16;21.10;99.90
9103;DHT22;4587;51.434;6.788;2023-08-01T12:55:45;21.10;99.90
9103;DHT22;4587;51.434;6.788;2023-08-01T12:58:12;21.20;99.90
9103;DHT22;4587;51.434;6.788;2023-08-01T13:00:39;21.20;99.90
9103;DHT22;4587;51.434;6.788;2023-08-01T13:03:05;21.20;99.90
9103;DHT22;4587;51.434;6.788;2023-08-01T13:05:34;21.20;99.90
9103;DHT22;4587;51.434;6.788;2023-08-01T13:07:59;21.20;99.90
9103;DHT22;4587;51.434;6.788;2023-08-01T13:10:25;21.20;99.90
9103;DHT22;4587;51.434;6.788;2023-08-01T13:12:50;21.10;99.90
9103;DHT22;4587;51.434;6.788;2023-08-01T13:15:16;21.00;99.90
9103;DHT22;4587;51.434;6.788;2023-08-01T13:17:42;20.80;99.90
9103;DHT22;4587;51.434;6.788;2023-08-01T13:20:07;20.70;99.90
9103;DHT22;4587;51.434;6.788;2023-08-01T13:22:33;20.50;99.90
9103;DHT22;4587;51.434;6.788;2023-08-01T13:24:59;20.20;99.90
9103;DHT22;4587;51.434;6.788;2023-08-01T13:27:24;20.10;99.90
9103;DHT22;4587;51.434;6.788;2023-08-01T13:29:50;20.00;99.90
9103;DHT22;4587;51.434;6.788;2023-08-01T13:32:18;20.00;99.90
9103;DHT22;4587;51.434;6.788;2023-08-01T13:34:43;20.00;99.90
9103;DHT22;4587;51.434;6.788;2023-08-01T13:37:09;20.00;99.90
9103;DHT22;4587;51.434;6.788;2023-08-01T13:39:35;20.10;99.90
9103;DHT22;4587;51.434;6.788;2023-08-01T13:42:00;20.00;99.90
9103;DHT22;4587;51.434;6.788;2023-08-01T13:44:26;20.30;99.90
9103;DHT22;4587;51.434;6.788;2023-08-01T13:46:51;20.60;99.90
9103;DHT22;4587;51.434;6.788;2023-08-01T13:49:18;20.80;99.90
9103;DHT22;4587;51.434;6.788;2023-08-01T13:51:43;20.90;99.90
9103;DHT22;4587;51.434;6.788;2023-08-01T13:54:09;21.00;99.90
9103;DHT22;4587;51.434;6.788;2023-08-01T13:56:35;21.00;99.90
9103;DHT22;4587;51.434;6.788;2023-08-01T13:59:00;21.00;99.90
9103;DHT22;4587;51.434;6.788;2023-08-01T14:01:26;21.20;99.90
9103;DHT22;4587;51.434;6.788;2023-08-01T14:03:51;21.40;99.90
9103;DHT22;4587;51.434;6.788;2023-08-01T14:06:18;21.60;99.90
9103;DHT22;4587;51.434;6.788;2023-08-01T14:08:43;21.60;99.90
9103;DHT22;4587;51.434;6.788;2023-08-01T14:11:10;21.70;99.90
9103;DHT22;4587;51.434;6.788;2023-08-01T14:13:36;21.80;99.90
9103;DHT22;4587;51.434;6.788;2023-08-01T14:16:02;21.80;99.90
9103;DHT22;4587;51.434;6.788;2023-08-01T14:18:28;21.70;99.90
9103;DHT22;4587;51.434;6.788;2023-08-01T14:20:54;21.60;99.90
9103;DHT22;4587;51.434;6.788;2023-08-01T14:23:20;21.80;99.90
9103;DHT22;4587;51.434;6.788;2023-08-01T14:25:46;22.00;99.90
9103;DHT22;4587;51.434;6.788;2023-08-01T14:28:12;22.20;99.90
9103;DHT22;4587;51.434;6.788;2023-08-01T14:30:38;22.30;99.90
9103;DHT22;4587;51.434;6.788;2023-08-01T14:33:06;22.40;99.90
9103;DHT22;4587;51.434;6.788;2023-08-01T14:35:34;22.30;99.90
9103;DHT22;4587;51.434;6.788;2023-08-01T14:38:00;22.00;99.90
9103;DHT22;4587;51.434;6.788;2023-08-01T14:40:25;21.80;99.90
9103;DHT22;4587;51.434;6.788;2023-08-01T14:42:52;21.70;99.90
9103;DHT22;4587;51.434;6.788;2023-08-01T14:45:18;21.50;99.90
9103;DHT22;4587;51.434;6.788;2023-08-01T14:47:44;21.40;99.90
9103;DHT22;4587;51.434;6.788;2023-08-01T14:50:11;21.20;99.90
9103;DHT22;4587;51.434;6.788;2023-08-01T14:52:37;21.10;99.90
9103;DHT22;4587;51.434;6.788;2023-08-01T14:55:02;21.20;99.90
9103;DHT22;4587;51.434;6.788;2023-08-01T14:57:28;21.10;99.90
9103;DHT22;4587;51.434;6.788;2023-08-01T14:59:54;21.10;99.90
9103;DHT22;4587;51.434;6.788;2023-08-01T15:02:20;21.20;99.90
9103;DHT22;4587;51.434;6.788;2023-08-01T15:04:50;21.20;99.90
9103;DHT22;4587;51.434;6.788;2023-08-01T15:07:17;21.30;99.90
9103;DHT22;4587;51.434;6.788;2023-08-01T15:09:43;21.30;99.90
9103;DHT22;4587;51.434;6.788;2023-08-01T15:12:09;21.40;99.90
9103;DHT22;4587;51.434;6.788;2023-08-01T15:14:34;21.70;99.90
9103;DHT22;4587;51.434;6.788;2023-08-01T15:17:00;21.80;99.90
9103;DHT22;4587;51.434;6.788;2023-08-01T15:19:25;21.90;99.90
9103;DHT22;4587;51.434;6.788;2023-08-01T15:21:51;21.90;99.90
9103;DHT22;4587;51.434;6.788;2023-08-01T15:24:16;21.80;99.90
9103;DHT22;4587;51.434;6.788;2023-08-01T15:26:42;21.60;99.90
9103;DHT22;4587;51.434;6.788;2023-08-01T15:29:07;21.60;99.90
9103;DHT22;4587;51.434;6.788;2023-08-01T15:31:33;21.60;99.90
9103;DHT22;4587;51.434;6.788;2023-08-01T15:33:59;21.70;99.90
9103;DHT22;4587;51.434;6.788;2023-08-01T15:36:27;21.80;99.90
9103;DHT22;4587;51.434;6.788;2023-08-01T15:38:54;22.00;99.90
9103;DHT22;4587;51.434;6.788;2023-08-01T15:41:20;22.20;99.90
9103;DHT22;4587;51.434;6.788;2023-08-01T15:43:46;22.30;99.90
9103;DHT22;4587;51.434;6.788;2023-08-01T15:46:12;22.40;99.90
9103;DHT22;4587;51.434;6.788;2023-08-01T15:48:38;22.40;99.90
9103;DHT22;4587;51.434;6.788;2023-08-01T15:51:05;22.40;99.90
9103;DHT22;4587;51.434;6.788;2023-08-01T15:53:32;22.40;99.90
9103;DHT22;4587;51.434;6.788;2023-08-01T15:56:06;22.30;99.90
9103;DHT22;4587;51.434;6.788;2023-08-01T15:58:31;22.10;99.90
9103;DHT22;4587;51.434;6.788;2023-08-01T16:00:59;21.90;99.90